sensor_id;sensor_type;location;lat;lon;timestamp;P1;durP1;ratioP1;P2;durP2;ratioP2
71162;SDS011;58858;50.948;6.566;2023-02-28T00:09:38;4.60;;;1.85;;
71162;SDS011;58858;50.948;6.566;2023-02-28T00:19:41;3.90;;;1.88;;
71162;SDS011;58858;50.948;6.566;2023-02-28T00:29:43;2.00;;;1.35;;
71162;SDS011;58858;50.948;6.566;2023-02-28T00:39:45;4.45;;;1.50;;
71162;SDS011;58858;50.948;6.566;2023-02-28T00:49:46;4.80;;;1.80;;
71162;SDS011;58858;50.948;6.566;2023-02-28T00:59:47;3.40;;;1.98;;
71162;SDS011;58858;50.948;6.566;2023-02-28T01:09:48;3.63;;;1.80;;
71162;SDS011;58858;50.948;6.566;2023-02-28T01:19:52;2.70;;;1.80;;
71162;SDS011;58858;50.948;6.566;2023-02-28T01:29:54;2.10;;;1.03;;
71162;SDS011;58858;50.948;6.566;2023-02-28T01:39:55;6.28;;;2.42;;
71162;SDS011;58858;50.948;6.566;2023-02-28T01:49:56;5.05;;;2.00;;
71162;SDS011;58858;50.948;6.566;2023-02-28T01:59:59;4.57;;;1.88;;
71162;SDS011;58858;50.948;6.566;2023-02-28T02:10:15;3.90;;;2.15;;
71162;SDS011;58858;50.948;6.566;2023-02-28T02:41:15;4.38;;;2.25;;
71162;SDS011;58858;50.948;6.566;2023-02-28T02:51:20;3.63;;;1.80;;
71162;SDS011;58858;50.948;6.566;2023-02-28T03:01:23;5.43;;;3.45;;
71162;SDS011;58858;50.948;6.566;2023-02-28T03:11:28;3.83;;;1.80;;
71162;SDS011;58858;50.948;6.566;2023-02-28T03:21:53;5.65;;;2.30;;
71162;SDS011;58858;50.948;6.566;2023-02-28T03:32:06;4.25;;;1.90;;
71162;SDS011;58858;50.948;6.566;2023-02-28T03:42:15;2.45;;;1.63;;
71162;SDS011;58858;50.948;6.566;2023-02-28T03:52:20;8.95;;;2.65;;
71162;SDS011;58858;50.948;6.566;2023-02-28T04:02:23;3.97;;;1.80;;
71162;SDS011;58858;50.948;6.566;2023-02-28T04:12:25;5.97;;;2.60;;
71162;SDS011;58858;50.948;6.566;2023-02-28T04:22:26;5.65;;;2.08;;
71162;SDS011;58858;50.948;6.566;2023-02-28T04:32:29;6.78;;;4.03;;
71162;SDS011;58858;50.948;6.566;2023-02-28T04:42:30;7.45;;;3.53;;
71162;SDS011;58858;50.948;6.566;2023-02-28T04:52:36;6.85;;;3.92;;
71162;SDS011;58858;50.948;6.566;2023-02-28T05:02:39;6.53;;;3.80;;
71162;SDS011;58858;50.948;6.566;2023-02-28T05:12:43;9.57;;;3.20;;
71162;SDS011;58858;50.948;6.566;2023-02-28T05:22:45;3.80;;;2.58;;
71162;SDS011;58858;50.948;6.566;2023-02-28T05:32:48;5.00;;;2.70;;
71162;SDS011;58858;50.948;6.566;2023-02-28T05:42:50;7.50;;;2.67;;
71162;SDS011;58858;50.948;6.566;2023-02-28T05:52:52;6.65;;;2.28;;
71162;SDS011;58858;50.948;6.566;2023-02-28T06:02:53;4.75;;;2.30;;
71162;SDS011;58858;50.948;6.566;2023-02-28T06:12:59;5.03;;;2.87;;
71162;SDS011;58858;50.948;6.566;2023-02-28T06:23:03;4.82;;;2.25;;
71162;SDS011;58858;50.948;6.566;2023-02-28T06:33:04;3.10;;;2.20;;
71162;SDS011;58858;50.948;6.566;2023-02-28T06:43:05;6.18;;;2.40;;
71162;SDS011;58858;50.948;6.566;2023-02-28T06:53:07;8.20;;;3.38;;
71162;SDS011;58858;50.948;6.566;2023-02-28T07:03:08;5.57;;;2.33;;
71162;SDS011;58858;50.948;6.566;2023-02-28T07:13:10;4.30;;;2.30;;
71162;SDS011;58858;50.948;6.566;2023-02-28T07:23:11;9.77;;;3.30;;
71162;SDS011;58858;50.948;6.566;2023-02-28T07:33:12;3.97;;;2.53;;
71162;SDS011;58858;50.948;6.566;2023-02-28T07:43:13;3.75;;;2.00;;
71162;SDS011;58858;50.948;6.566;2023-02-28T07:53:14;2.45;;;1.58;;
71162;SDS011;58858;50.948;6.566;2023-02-28T08:03:16;8.45;;;3.17;;
71162;SDS011;58858;50.948;6.566;2023-02-28T08:13:18;3.80;;;1.67;;
71162;SDS011;58858;50.948;6.566;2023-02-28T08:23:19;2.20;;;2.00;;
71162;SDS011;58858;50.948;6.566;2023-02-28T08:33:21;6.63;;;2.45;;
71162;SDS011;58858;50.948;6.566;2023-02-28T08:43:23;3.92;;;1.73;;
71162;SDS011;58858;50.948;6.566;2023-02-28T08:53:24;1.98;;;1.40;;
71162;SDS011;58858;50.948;6.566;2023-02-28T09:03:25;1.52;;;1.30;;
71162;SDS011;58858;50.948;6.566;2023-02-28T09:13:27;1.38;;;1.20;;
71162;SDS011;58858;50.948;6.566;2023-02-28T09:23:29;1.48;;;0.90;;
71162;SDS011;58858;50.948;6.566;2023-02-28T09:33:30;2.05;;;1.13;;
71162;SDS011;58858;50.948;6.566;2023-02-28T09:43:33;2.92;;;1.15;;
71162;SDS011;58858;50.948;6.566;2023-02-28T09:53:39;1.65;;;1.10;;
71162;SDS011;58858;50.948;6.566;2023-02-28T10:03:42;1.73;;;1.10;;
71162;SDS011;58858;50.948;6.566;2023-02-28T10:14:13;3.38;;;1.55;;
71162;SDS011;58858;50.948;6.566;2023-02-28T10:24:19;1.55;;;1.23;;
71162;SDS011;58858;50.948;6.566;2023-02-28T10:34:24;2.13;;;1.15;;
71162;SDS011;58858;50.948;6.566;2023-02-28T10:44:25;3.40;;;1.58;;
71162;SDS011;58858;50.948;6.566;2023-02-28T10:54:31;5.78;;;1.40;;
71162;SDS011;58858;50.948;6.566;2023-02-28T11:04:36;1.83;;;1.15;;
71162;SDS011;58858;50.948;6.566;2023-02-28T11:14:46;3.90;;;1.50;;
71162;SDS011;58858;50.948;6.566;2023-02-28T11:24:53;2.05;;;1.38;;
71162;SDS011;58858;50.948;6.566;2023-02-28T11:35:00;1.95;;;1.33;;
71162;SDS011;58858;50.948;6.566;2023-02-28T12:05:45;2.30;;;1.58;;
71162;SDS011;58858;50.948;6.566;2023-02-28T12:15:50;4.28;;;2.00;;
71162;SDS011;58858;50.948;6.566;2023-02-28T12:36:25;3.70;;;2.20;;
71162;SDS011;58858;50.948;6.566;2023-02-28T12:46:30;2.85;;;1.83;;
71162;SDS011;58858;50.948;6.566;2023-02-28T12:57:09;2.10;;;1.40;;
71162;SDS011;58858;50.948;6.566;2023-02-28T13:18:03;4.05;;;2.20;;
71162;SDS011;58858;50.948;6.566;2023-02-28T13:28:11;2.55;;;1.50;;
71162;SDS011;58858;50.948;6.566;2023-02-28T13:38:22;5.88;;;1.67;;
71162;SDS011;58858;50.948;6.566;2023-02-28T13:48:28;4.95;;;2.58;;
71162;SDS011;58858;50.948;6.566;2023-02-28T14:09:00;4.50;;;2.30;;
71162;SDS011;58858;50.948;6.566;2023-02-28T14:39:24;3.30;;;2.17;;
71162;SDS011;58858;50.948;6.566;2023-02-28T14:49:30;3.13;;;1.65;;
71162;SDS011;58858;50.948;6.566;2023-02-28T14:59:33;2.70;;;1.60;;
71162;SDS011;58858;50.948;6.566;2023-02-28T15:09:38;2.05;;;1.63;;
71162;SDS011;58858;50.948;6.566;2023-02-28T15:19:41;4.60;;;2.58;;
71162;SDS011;58858;50.948;6.566;2023-02-28T15:29:54;4.30;;;2.10;;
71162;SDS011;58858;50.948;6.566;2023-02-28T15:39:58;3.75;;;2.08;;
71162;SDS011;58858;50.948;6.566;2023-02-28T15:50:27;4.30;;;2.65;;
71162;SDS011;58858;50.948;6.566;2023-02-28T16:00:29;2.10;;;1.92;;
71162;SDS011;58858;50.948;6.566;2023-02-28T16:10:30;3.78;;;1.75;;
71162;SDS011;58858;50.948;6.566;2023-02-28T16:20:32;3.28;;;1.70;;
71162;SDS011;58858;50.948;6.566;2023-02-28T16:30:33;3.05;;;1.98;;
71162;SDS011;58858;50.948;6.566;2023-02-28T16:40:34;3.45;;;1.90;;
71162;SDS011;58858;50.948;6.566;2023-02-28T16:50:36;3.97;;;2.10;;
71162;SDS011;58858;50.948;6.566;2023-02-28T17:00:37;2.95;;;2.15;;
71162;SDS011;58858;50.948;6.566;2023-02-28T17:10:38;3.60;;;2.30;;
71162;SDS011;58858;50.948;6.566;2023-02-28T17:20:39;4.65;;;2.42;;
71162;SDS011;58858;50.948;6.566;2023-02-28T17:30:42;5.82;;;2.67;;
71162;SDS011;58858;50.948;6.566;2023-02-28T17:50:49;4.13;;;2.83;;
71162;SDS011;58858;50.948;6.566;2023-02-28T18:00:50;5.57;;;3.30;;
71162;SDS011;58858;50.948;6.566;2023-02-28T18:10:54;4.32;;;3.10;;
71162;SDS011;58858;50.948;6.566;2023-02-28T18:20:55;9.52;;;4.47;;
71162;SDS011;58858;50.948;6.566;2023-02-28T18:30:56;5.35;;;3.13;;
71162;SDS011;58858;50.948;6.566;2023-02-28T18:40:58;5.25;;;3.40;;
71162;SDS011;58858;50.948;6.566;2023-02-28T18:51:07;6.38;;;3.50;;
71162;SDS011;58858;50.948;6.566;2023-02-28T19:01:25;5.43;;;3.85;;
71162;SDS011;58858;50.948;6.566;2023-02-28T19:11:32;6.43;;;3.35;;
71162;SDS011;58858;50.948;6.566;2023-02-28T19:21:34;6.82;;;3.65;;
71162;SDS011;58858;50.948;6.566;2023-02-28T19:31:36;6.20;;;3.53;;
71162;SDS011;58858;50.948;6.566;2023-02-28T19:41:37;8.00;;;3.33;;
71162;SDS011;58858;50.948;6.566;2023-02-28T19:51:38;4.88;;;3.55;;
71162;SDS011;58858;50.948;6.566;2023-02-28T20:01:40;6.65;;;3.50;;
71162;SDS011;58858;50.948;6.566;2023-02-28T20:11:42;8.07;;;3.65;;
71162;SDS011;58858;50.948;6.566;2023-02-28T20:21:44;5.70;;;3.65;;
71162;SDS011;58858;50.948;6.566;2023-02-28T20:31:45;7.85;;;4.60;;
71162;SDS011;58858;50.948;6.566;2023-02-28T20:41:46;5.72;;;4.05;;
71162;SDS011;58858;50.948;6.566;2023-02-28T20:51:47;9.07;;;4.32;;
71162;SDS011;58858;50.948;6.566;2023-02-28T21:01:48;5.32;;;3.85;;
71162;SDS011;58858;50.948;6.566;2023-02-28T21:11:51;5.70;;;3.90;;
71162;SDS011;58858;50.948;6.566;2023-02-28T21:21:53;5.40;;;3.80;;
71162;SDS011;58858;50.948;6.566;2023-02-28T21:31:55;8.98;;;4.53;;
71162;SDS011;58858;50.948;6.566;2023-02-28T21:41:56;6.93;;;4.18;;
71162;SDS011;58858;50.948;6.566;2023-02-28T21:52:03;9.55;;;4.65;;
71162;SDS011;58858;50.948;6.566;2023-02-28T22:02:04;8.90;;;5.28;;
71162;SDS011;58858;50.948;6.566;2023-02-28T22:12:06;10.90;;;5.65;;
71162;SDS011;58858;50.948;6.566;2023-02-28T22:22:08;11.15;;;5.43;;
71162;SDS011;58858;50.948;6.566;2023-02-28T22:32:09;9.30;;;5.25;;
71162;SDS011;58858;50.948;6.566;2023-02-28T22:42:11;9.35;;;5.85;;
71162;SDS011;58858;50.948;6.566;2023-02-28T22:52:12;7.63;;;5.20;;
71162;SDS011;58858;50.948;6.566;2023-02-28T23:02:13;7.93;;;4.45;;
71162;SDS011;58858;50.948;6.566;2023-02-28T23:12:14;8.70;;;4.68;;
71162;SDS011;58858;50.948;6.566;2023-02-28T23:22:15;8.63;;;4.70;;
71162;SDS011;58858;50.948;6.566;2023-02-28T23:32:16;12.68;;;4.50;;
71162;SDS011;58858;50.948;6.566;2023-02-28T23:42:17;7.35;;;4.18;;
71162;SDS011;58858;50.948;6.566;2023-02-28T23:52:18;10.52;;;5.40;;
